createdAt,value
2017-06-05T00:00:06.865Z,22.22
2017-06-05T00:01:08.304Z,22.18
2017-06-05T00:02:09.738Z,22.09
2017-06-05T00:03:11.168Z,22.21
2017-06-05T00:04:12.616Z,22.14
2017-06-05T00:05:14.061Z,22.07
2017-06-05T00:06:15.502Z,22.07
2017-06-05T00:07:16.938Z,22.03
2017-06-05T00:08:18.365Z,22.09
2017-06-05T00:09:19.818Z,22.06
2017-06-05T00:10:21.262Z,22.06
2017-06-05T00:11:22.703Z,22.05
2017-06-05T00:12:24.141Z,22.09
2017-06-05T00:13:25.593Z,22.07
2017-06-05T00:14:27.035Z,21.99
2017-06-05T00:15:28.459Z,21.96
2017-06-05T00:16:29.890Z,22.02
2017-06-05T00:17:31.323Z,22.02
2017-06-05T00:18:32.767Z,21.99
2017-06-05T00:19:34.210Z,21.92
2017-06-05T00:20:35.640Z,22.00
2017-06-05T00:21:37.076Z,21.84
2017-06-05T00:22:38.525Z,21.98
2017-06-05T00:23:39.953Z,21.98
2017-06-05T00:24:41.388Z,21.96
2017-06-05T00:25:42.816Z,21.87
2017-06-05T00:26:44.253Z,21.91
2017-06-05T00:27:45.695Z,21.87
2017-06-05T00:28:47.133Z,21.90
2017-06-05T00:29:48.566Z,21.87
2017-06-05T00:30:49.998Z,21.92
2017-06-05T00:31:51.436Z,21.94
2017-06-05T00:32:52.877Z,21.94
2017-06-05T00:33:54.316Z,21.92
2017-06-05T00:34:55.752Z,21.92
2017-06-05T00:35:57.186Z,21.90
2017-06-05T00:36:58.624Z,21.86
2017-06-05T00:38:00.055Z,21.83
2017-06-05T00:39:01.488Z,21.90
2017-06-05T00:40:02.949Z,21.86
2017-06-05T00:41:04.354Z,21.91
2017-06-05T00:42:05.792Z,21.87
2017-06-05T00:43:07.233Z,21.83
2017-06-05T00:44:08.660Z,21.80
2017-06-05T00:45:10.094Z,21.82
2017-06-05T00:46:11.523Z,21.82
2017-06-05T00:47:12.962Z,21.79
2017-06-05T00:48:14.397Z,21.74
2017-06-05T00:49:15.826Z,21.72
2017-06-05T00:50:17.263Z,21.79
2017-06-05T00:51:18.694Z,21.80
2017-06-05T00:52:20.123Z,21.80
2017-06-05T00:53:21.554Z,21.74
2017-06-05T00:54:22.992Z,21.79
2017-06-05T00:55:24.429Z,21.74
2017-06-05T00:56:25.873Z,21.64
2017-06-05T00:57:27.311Z,21.74
2017-06-05T00:58:28.744Z,21.74
2017-06-05T00:59:30.215Z,21.72
2017-06-05T01:00:31.654Z,21.69
2017-06-05T01:01:33.086Z,21.67
2017-06-05T01:02:34.517Z,21.64
2017-06-05T01:03:35.966Z,21.67
2017-06-05T01:04:37.398Z,21.64
2017-06-05T01:05:38.829Z,21.65
2017-06-05T01:06:40.265Z,21.64
2017-06-05T01:07:41.793Z,21.56
2017-06-05T01:08:43.228Z,21.68
2017-06-05T01:09:44.665Z,21.65
2017-06-05T01:10:46.101Z,21.56
2017-06-05T01:11:47.537Z,21.59
2017-06-05T01:12:48.973Z,21.56
2017-06-05T01:13:50.403Z,21.58
2017-06-05T01:14:51.850Z,21.54
2017-06-05T01:15:53.299Z,21.54
2017-06-05T01:16:54.734Z,21.52
2017-06-05T01:17:56.176Z,21.52
2017-06-05T01:18:57.622Z,21.52
2017-06-05T01:19:59.054Z,21.49
2017-06-05T01:21:00.482Z,21.56
2017-06-05T01:22:01.924Z,21.44
2017-06-05T01:23:03.358Z,21.44
2017-06-05T01:24:04.789Z,21.49
2017-06-05T01:25:06.225Z,21.49
2017-06-05T01:26:07.754Z,21.44
2017-06-05T01:27:09.182Z,21.49
2017-06-05T01:28:10.612Z,21.46
2017-06-05T01:29:12.042Z,21.58
2017-06-05T01:30:13.477Z,21.47
2017-06-05T01:31:14.909Z,21.50
2017-06-05T01:32:16.345Z,21.49
2017-06-05T01:33:17.786Z,21.44
2017-06-05T01:34:19.216Z,21.43
2017-06-05T01:35:20.647Z,21.44
2017-06-05T01:36:22.103Z,21.38
2017-06-05T01:37:23.541Z,21.46
2017-06-05T01:38:24.973Z,21.44
2017-06-05T01:39:26.407Z,21.47
2017-06-05T01:40:27.860Z,21.42
2017-06-05T01:41:29.298Z,21.37
2017-06-05T01:42:30.731Z,21.46
2017-06-05T01:43:32.168Z,21.44
2017-06-05T01:44:33.604Z,21.43
2017-06-05T01:45:35.035Z,21.44
2017-06-05T01:46:36.473Z,21.42
2017-06-05T01:47:37.914Z,21.32
2017-06-05T01:48:39.348Z,21.40
2017-06-05T01:49:40.793Z,21.38
2017-06-05T01:50:42.225Z,21.38
2017-06-05T01:51:43.657Z,21.22
2017-06-05T01:52:45.090Z,21.29
2017-06-05T01:53:46.532Z,21.24
2017-06-05T01:54:47.973Z,21.34
2017-06-05T01:55:49.404Z,21.25
2017-06-05T01:56:50.837Z,21.27
2017-06-05T01:57:52.274Z,21.29
2017-06-05T01:58:53.704Z,21.29
2017-06-05T01:59:55.141Z,21.37
2017-06-05T02:00:56.576Z,21.25
2017-06-05T02:01:58.013Z,21.22
2017-06-05T02:02:59.447Z,21.28
2017-06-05T02:04:00.872Z,21.32
2017-06-05T02:05:02.307Z,21.29
2017-06-05T02:06:03.741Z,21.28
2017-06-05T02:07:05.174Z,21.35
2017-06-05T02:08:06.611Z,21.17
2017-06-05T02:09:08.045Z,21.29
2017-06-05T02:10:09.478Z,21.29
2017-06-05T02:11:10.911Z,21.31
2017-06-05T02:12:12.341Z,21.31
2017-06-05T02:13:13.768Z,21.28
2017-06-05T02:14:15.204Z,21.29
2017-06-05T02:15:16.647Z,21.25
2017-06-05T02:16:18.085Z,21.25
2017-06-05T02:17:19.516Z,21.28
2017-06-05T02:18:20.945Z,21.24
2017-06-05T02:19:22.390Z,21.17
2017-06-05T02:20:23.824Z,21.24
2017-06-05T02:21:25.259Z,21.21
2017-06-05T02:22:26.696Z,21.19
2017-06-05T02:23:28.131Z,21.13
2017-06-05T02:24:29.561Z,21.13
2017-06-05T02:25:30.993Z,21.19
2017-06-05T02:26:32.434Z,21.16
2017-06-05T02:27:33.865Z,21.12
2017-06-05T02:28:35.302Z,21.04
2017-06-05T02:29:36.734Z,21.13
2017-06-05T02:30:38.174Z,21.07
2017-06-05T02:31:39.611Z,21.03
2017-06-05T02:32:41.046Z,21.04
2017-06-05T02:33:42.485Z,21.12
2017-06-05T02:34:43.919Z,21.10
2017-06-05T02:35:45.345Z,21.06
2017-06-05T02:36:46.785Z,21.10
2017-06-05T02:37:48.215Z,20.99
2017-06-05T02:38:49.645Z,21.03
2017-06-05T02:39:51.076Z,21.12
2017-06-05T02:40:52.511Z,21.04
2017-06-05T02:41:53.945Z,20.99
2017-06-05T02:42:55.377Z,21.07
2017-06-05T02:43:56.815Z,20.95
2017-06-05T02:44:58.244Z,21.03
2017-06-05T02:45:59.678Z,21.03
2017-06-05T02:47:01.112Z,20.98
2017-06-05T02:48:02.553Z,20.98
2017-06-05T02:49:03.979Z,20.92
2017-06-05T02:50:05.412Z,21.03
2017-06-05T02:51:06.849Z,20.95
2017-06-05T02:52:08.286Z,21.04
2017-06-05T02:53:09.719Z,20.92
2017-06-05T02:54:11.161Z,20.98
2017-06-05T02:55:12.595Z,21.03
2017-06-05T02:56:14.026Z,20.95
2017-06-05T02:57:15.457Z,20.95
2017-06-05T02:58:16.901Z,21.04
2017-06-05T02:59:18.328Z,21.03
2017-06-05T03:00:19.754Z,21.03
2017-06-05T03:01:21.188Z,20.97
2017-06-05T03:02:22.626Z,20.91
2017-06-05T03:03:24.055Z,20.92
2017-06-05T03:04:25.493Z,20.92
2017-06-05T03:05:26.927Z,20.92
2017-06-05T03:06:28.365Z,20.94
2017-06-05T03:07:29.791Z,20.94
2017-06-05T03:08:31.229Z,20.88
2017-06-05T03:09:32.659Z,20.89
2017-06-05T03:10:34.093Z,20.88
2017-06-05T03:11:35.528Z,20.92
2017-06-05T03:12:36.964Z,20.88
2017-06-05T03:13:38.402Z,20.87
2017-06-05T03:14:39.832Z,20.91
2017-06-05T03:15:41.265Z,20.91
2017-06-05T03:16:42.702Z,20.89
2017-06-05T03:17:44.138Z,20.88
2017-06-05T03:18:45.575Z,20.91
2017-06-05T03:19:47.010Z,20.88
2017-06-05T03:20:48.448Z,20.89
2017-06-05T03:21:49.887Z,20.92
2017-06-05T03:22:51.316Z,20.97
2017-06-05T03:23:52.752Z,20.82
2017-06-05T03:24:54.205Z,20.76
2017-06-05T03:25:55.642Z,20.77
2017-06-05T03:26:57.095Z,20.76
2017-06-05T03:27:58.521Z,20.76
2017-06-05T03:28:59.961Z,20.77
2017-06-05T03:30:01.396Z,20.77
2017-06-05T03:31:02.831Z,20.85
2017-06-05T03:32:04.264Z,20.79
2017-06-05T03:33:05.730Z,20.80
2017-06-05T03:34:07.162Z,20.77
2017-06-05T03:35:08.610Z,20.79
2017-06-05T03:36:10.046Z,20.80
2017-06-05T03:37:11.485Z,20.82
2017-06-05T03:38:12.921Z,20.84
2017-06-05T03:39:14.362Z,20.80
2017-06-05T03:40:15.842Z,20.82
2017-06-05T03:41:17.282Z,20.94
2017-06-05T03:42:18.721Z,20.80
2017-06-05T03:43:20.160Z,20.77
2017-06-05T03:44:21.663Z,20.79
2017-06-05T03:45:23.097Z,20.82
2017-06-05T03:46:24.529Z,20.77
2017-06-05T03:47:25.954Z,20.74
2017-06-05T03:48:27.401Z,20.77
2017-06-05T03:49:28.842Z,20.76
2017-06-05T03:50:30.316Z,20.77
2017-06-05T03:51:31.744Z,20.77
2017-06-05T03:52:33.176Z,20.77
2017-06-05T03:53:34.613Z,20.77
2017-06-05T03:54:36.091Z,20.77
2017-06-05T03:55:37.531Z,20.77
2017-06-05T03:56:38.966Z,20.70
2017-06-05T03:57:40.473Z,20.82
2017-06-05T03:58:41.870Z,20.79
2017-06-05T03:59:43.307Z,20.79
2017-06-05T04:00:44.734Z,20.72
2017-06-05T04:01:46.167Z,20.77
2017-06-05T04:02:47.599Z,20.76
2017-06-05T04:03:49.039Z,20.73
2017-06-05T04:04:50.472Z,20.72
2017-06-05T04:05:51.911Z,20.70
2017-06-05T04:06:53.336Z,20.79
2017-06-05T04:07:54.771Z,20.73
2017-06-05T04:08:56.207Z,20.76
2017-06-05T04:09:57.716Z,20.79
2017-06-05T04:10:59.148Z,20.79
2017-06-05T04:12:00.577Z,20.66
2017-06-05T04:13:02.013Z,20.76
2017-06-05T04:14:03.447Z,20.64
2017-06-05T04:15:04.881Z,20.74
2017-06-05T04:16:06.316Z,20.74
2017-06-05T04:17:07.795Z,20.64
2017-06-05T04:18:09.231Z,20.70
2017-06-05T04:19:10.668Z,20.66
2017-06-05T04:20:12.110Z,20.72
2017-06-05T04:21:13.597Z,20.58
2017-06-05T04:22:15.033Z,20.70
2017-06-05T04:23:16.474Z,20.70
2017-06-05T04:24:17.968Z,20.64
2017-06-05T04:25:19.416Z,20.67
2017-06-05T04:26:20.851Z,20.64
2017-06-05T04:27:22.304Z,20.57
2017-06-05T04:28:23.742Z,20.67
2017-06-05T04:29:25.179Z,20.72
2017-06-05T04:30:26.619Z,20.67
2017-06-05T04:31:28.055Z,20.61
2017-06-05T04:32:29.490Z,20.58
2017-06-05T04:33:30.936Z,20.67
2017-06-05T04:34:32.371Z,20.61
2017-06-05T04:35:33.803Z,20.57
2017-06-05T04:36:35.243Z,20.57
2017-06-05T04:37:36.674Z,20.67
2017-06-05T04:38:38.171Z,20.62
2017-06-05T04:39:39.633Z,20.59
2017-06-05T04:40:41.066Z,20.67
2017-06-05T04:41:42.499Z,20.67
2017-06-05T04:42:43.934Z,20.67
2017-06-05T04:43:45.371Z,20.62
2017-06-05T04:44:46.796Z,20.58
2017-06-05T04:45:48.298Z,20.64
2017-06-05T04:46:49.732Z,20.72
2017-06-05T04:47:51.169Z,20.55
2017-06-05T04:48:52.604Z,20.62
2017-06-05T04:49:54.045Z,20.61
2017-06-05T04:50:55.479Z,20.58
2017-06-05T04:51:56.917Z,20.59
2017-06-05T04:52:58.356Z,20.62
2017-06-05T04:53:59.791Z,20.62
2017-06-05T04:55:01.227Z,20.59
2017-06-05T04:56:02.660Z,20.67
2017-06-05T04:57:04.093Z,20.67
2017-06-05T04:58:05.528Z,20.73
2017-06-05T04:59:06.967Z,20.66
2017-06-05T05:00:08.450Z,20.64
2017-06-05T05:01:09.888Z,20.62
2017-06-05T05:02:11.318Z,20.61
2017-06-05T05:03:12.757Z,20.69
2017-06-05T05:04:14.201Z,20.67
2017-06-05T05:05:15.634Z,20.72
2017-06-05T05:06:17.074Z,20.67
2017-06-05T05:07:18.515Z,20.57
2017-06-05T05:08:19.952Z,20.70
2017-06-05T05:09:21.395Z,20.67
2017-06-05T05:10:22.831Z,20.70
2017-06-05T05:11:24.264Z,20.67
2017-06-05T05:12:25.805Z,20.73
2017-06-05T05:13:27.235Z,20.67
2017-06-05T05:14:28.670Z,20.70
2017-06-05T05:15:30.110Z,20.72
2017-06-05T05:16:31.541Z,20.58
2017-06-05T05:17:32.978Z,20.64
2017-06-05T05:18:34.407Z,20.64
2017-06-05T05:19:35.839Z,20.61
2017-06-05T05:20:37.282Z,20.73
2017-06-05T05:21:38.723Z,20.73
2017-06-05T05:22:40.161Z,20.70
2017-06-05T05:23:41.603Z,20.72
2017-06-05T05:24:43.031Z,20.70
2017-06-05T05:25:44.461Z,20.72
2017-06-05T05:26:45.900Z,20.61
2017-06-05T05:27:47.338Z,20.74
2017-06-05T05:28:48.786Z,20.74
2017-06-05T05:29:50.224Z,20.74
2017-06-05T05:30:51.662Z,20.77
2017-06-05T05:31:53.100Z,20.73
2017-06-05T05:32:54.531Z,20.74
2017-06-05T05:33:55.964Z,20.72
2017-06-05T05:34:57.397Z,20.70
2017-06-05T05:35:58.836Z,20.73
2017-06-05T05:37:00.270Z,20.74
2017-06-05T05:38:01.695Z,20.77
2017-06-05T05:39:03.130Z,20.76
2017-06-05T05:40:04.567Z,20.80
2017-06-05T05:41:06.000Z,20.74
2017-06-05T05:42:07.429Z,20.79
2017-06-05T05:43:08.868Z,20.79
2017-06-05T05:44:10.303Z,20.74
2017-06-05T05:45:11.743Z,20.76
2017-06-05T05:46:13.171Z,20.79
2017-06-05T05:47:14.607Z,20.79
2017-06-05T05:48:16.041Z,20.79
2017-06-05T05:49:17.475Z,20.79
2017-06-05T05:50:18.924Z,20.82
2017-06-05T05:51:20.363Z,20.82
2017-06-05T05:52:21.807Z,20.82
2017-06-05T05:53:23.243Z,20.82
2017-06-05T05:54:24.678Z,20.79
2017-06-05T05:55:26.124Z,20.77
2017-06-05T05:56:27.559Z,20.80
2017-06-05T05:57:28.996Z,20.82
2017-06-05T05:58:30.427Z,20.73
2017-06-05T05:59:31.861Z,20.79
2017-06-05T06:00:33.292Z,20.80
2017-06-05T06:01:34.724Z,20.77
2017-06-05T06:02:36.165Z,20.76
2017-06-05T06:03:37.597Z,20.76
2017-06-05T06:04:39.030Z,20.77
2017-06-05T06:05:40.470Z,20.85
2017-06-05T06:06:41.906Z,20.74
2017-06-05T06:07:43.344Z,20.80
2017-06-05T06:08:44.776Z,20.73
2017-06-05T06:09:46.215Z,20.85
2017-06-05T06:10:47.644Z,20.85
2017-06-05T06:11:49.089Z,20.84
2017-06-05T06:12:50.522Z,20.88
2017-06-05T06:13:51.956Z,20.92
2017-06-05T06:14:53.399Z,21.01
2017-06-05T06:15:54.835Z,20.94
2017-06-05T06:16:56.276Z,20.98
2017-06-05T06:17:57.708Z,20.92
2017-06-05T06:18:59.148Z,20.94
2017-06-05T06:20:00.580Z,20.95
2017-06-05T06:21:02.015Z,20.97
2017-06-05T06:22:03.445Z,20.94
2017-06-05T06:23:04.879Z,20.97
2017-06-05T06:24:06.320Z,20.97
2017-06-05T06:25:07.761Z,20.98
2017-06-05T06:26:09.196Z,20.95
2017-06-05T06:27:10.634Z,21.06
2017-06-05T06:28:12.064Z,21.06
2017-06-05T06:29:13.494Z,20.94
2017-06-05T06:30:14.929Z,21.01
2017-06-05T06:31:16.363Z,20.95
2017-06-05T06:32:17.798Z,20.99
2017-06-05T06:33:19.238Z,20.97
2017-06-05T06:34:20.677Z,20.97
2017-06-05T06:35:22.106Z,21.09
2017-06-05T06:36:23.538Z,21.03
2017-06-05T06:37:24.982Z,21.06
2017-06-05T06:38:26.406Z,21.04
2017-06-05T06:39:27.843Z,21.04
2017-06-05T06:40:29.281Z,21.10
2017-06-05T06:41:30.723Z,21.09
2017-06-05T06:42:32.154Z,21.12
2017-06-05T06:43:33.587Z,21.10
2017-06-05T06:44:35.023Z,21.12
2017-06-05T06:45:36.457Z,21.17
2017-06-05T06:46:37.896Z,21.12
2017-06-05T06:47:39.334Z,21.17
2017-06-05T06:48:40.777Z,21.10
2017-06-05T06:49:42.205Z,21.12
2017-06-05T06:50:43.651Z,21.10
2017-06-05T06:51:45.073Z,21.16
2017-06-05T06:52:46.509Z,21.16
2017-06-05T06:53:47.958Z,21.17
2017-06-05T06:54:49.400Z,21.21
2017-06-05T06:55:50.823Z,21.22
2017-06-05T06:56:52.257Z,21.19
2017-06-05T06:57:53.688Z,21.19
2017-06-05T06:58:55.123Z,21.17
2017-06-05T06:59:56.575Z,21.25
2017-06-05T07:00:58.015Z,21.22
2017-06-05T07:01:59.464Z,21.29
2017-06-05T07:03:00.897Z,21.28
2017-06-05T07:04:02.333Z,21.22
2017-06-05T07:05:03.772Z,21.27
2017-06-05T07:06:05.211Z,21.24
2017-06-05T07:07:06.647Z,21.32
2017-06-05T07:08:08.084Z,21.25
2017-06-05T07:09:09.523Z,21.31
2017-06-05T07:10:10.960Z,21.29
2017-06-05T07:11:12.396Z,21.32
2017-06-05T07:12:13.823Z,21.29
2017-06-05T07:13:15.260Z,21.31
2017-06-05T07:14:16.692Z,21.28
2017-06-05T07:15:18.158Z,21.29
2017-06-05T07:16:19.601Z,21.43
2017-06-05T07:17:21.040Z,21.34
2017-06-05T07:18:22.478Z,21.38
2017-06-05T07:19:23.903Z,21.31
2017-06-05T07:20:25.342Z,21.38
2017-06-05T07:21:26.814Z,21.42
2017-06-05T07:22:28.247Z,21.28
2017-06-05T07:23:29.683Z,21.42
2017-06-05T07:24:31.129Z,21.46
2017-06-05T07:25:32.556Z,21.38
2017-06-05T07:26:34.015Z,21.43
2017-06-05T07:27:35.452Z,21.42
2017-06-05T07:28:36.885Z,21.40
2017-06-05T07:29:38.326Z,21.40
2017-06-05T07:30:39.754Z,21.47
2017-06-05T07:31:41.192Z,21.43
2017-06-05T07:32:42.638Z,21.43
2017-06-05T07:33:44.162Z,21.47
2017-06-05T07:34:45.595Z,21.54
2017-06-05T07:35:47.038Z,21.49
2017-06-05T07:36:48.479Z,21.52
2017-06-05T07:37:49.919Z,21.54
2017-06-05T07:38:51.361Z,21.49
2017-06-05T07:39:52.802Z,21.53
2017-06-05T07:40:54.238Z,21.56
2017-06-05T07:41:55.683Z,21.59
2017-06-05T07:42:57.116Z,21.50
2017-06-05T07:43:58.558Z,21.56
2017-06-05T07:44:59.992Z,21.56
2017-06-05T07:46:01.427Z,21.54
2017-06-05T07:47:02.863Z,21.62
2017-06-05T07:48:04.302Z,21.59
2017-06-05T07:49:05.733Z,21.65
2017-06-05T07:50:07.164Z,21.68
2017-06-05T07:51:08.618Z,21.59
2017-06-05T07:52:10.043Z,21.62
2017-06-05T07:53:11.482Z,21.69
2017-06-05T07:54:12.915Z,21.69
2017-06-05T07:55:14.415Z,21.65
2017-06-05T07:56:15.847Z,21.68
2017-06-05T07:57:17.292Z,21.71
2017-06-05T07:58:18.723Z,21.71
2017-06-05T07:59:20.167Z,21.65
2017-06-05T08:00:21.602Z,21.79
2017-06-05T08:01:23.041Z,21.79
2017-06-05T08:02:24.481Z,21.75
2017-06-05T08:03:25.923Z,21.69
2017-06-05T08:04:27.361Z,21.74
2017-06-05T08:05:28.806Z,21.71
2017-06-05T08:06:30.248Z,21.83
2017-06-05T08:07:31.679Z,21.82
2017-06-05T08:08:33.122Z,21.84
2017-06-05T08:09:34.560Z,21.90
2017-06-05T08:10:36.002Z,21.79
2017-06-05T08:11:37.444Z,21.83
2017-06-05T08:12:38.876Z,21.86
2017-06-05T08:13:40.434Z,21.82
2017-06-05T08:14:41.872Z,21.86
2017-06-05T08:15:43.316Z,21.77
2017-06-05T08:16:44.756Z,21.86
2017-06-05T08:17:46.192Z,21.92
2017-06-05T08:18:47.626Z,21.94
2017-06-05T08:19:49.068Z,21.87
2017-06-05T08:20:50.514Z,21.83
2017-06-05T08:21:51.975Z,21.83
2017-06-05T08:22:53.406Z,21.94
2017-06-05T08:23:54.845Z,21.92
2017-06-05T08:24:56.314Z,21.98
2017-06-05T08:25:57.747Z,22.00
2017-06-05T08:26:59.185Z,21.87
2017-06-05T08:28:00.620Z,21.99
2017-06-05T08:29:02.069Z,22.02
2017-06-05T08:30:03.497Z,22.03
2017-06-05T08:31:04.950Z,22.02
2017-06-05T08:32:06.385Z,22.02
2017-06-05T08:33:07.818Z,21.98
2017-06-05T08:34:09.258Z,22.03
2017-06-05T08:35:10.735Z,22.09
2017-06-05T08:36:12.154Z,22.07
2017-06-05T08:37:13.589Z,22.07
2017-06-05T08:38:15.026Z,22.03
2017-06-05T08:39:16.468Z,22.10
2017-06-05T08:40:17.913Z,22.14
2017-06-05T08:41:19.344Z,22.06
2017-06-05T08:42:20.786Z,22.03
2017-06-05T08:43:22.229Z,22.18
2017-06-05T08:44:23.661Z,22.05
2017-06-05T08:45:25.094Z,22.22
2017-06-05T08:46:26.630Z,22.06
2017-06-05T08:47:28.067Z,22.02
2017-06-05T08:48:29.507Z,22.17
2017-06-05T08:49:30.948Z,22.18
2017-06-05T08:50:32.385Z,22.07
2017-06-05T08:51:33.815Z,22.10
2017-06-05T08:52:35.250Z,22.07
2017-06-05T08:53:36.688Z,22.10
2017-06-05T08:54:38.124Z,22.06
2017-06-05T08:55:39.561Z,22.18
2017-06-05T08:56:40.998Z,22.15
2017-06-05T08:57:42.437Z,22.17
2017-06-05T08:58:43.877Z,22.17
2017-06-05T08:59:45.307Z,22.22
2017-06-05T09:00:46.778Z,22.15
2017-06-05T09:01:48.219Z,22.12
2017-06-05T09:02:49.661Z,22.09
2017-06-05T09:03:51.106Z,22.18
2017-06-05T09:04:52.551Z,22.21
2017-06-05T09:05:54.024Z,22.17
2017-06-05T09:06:55.488Z,22.18
2017-06-05T09:07:56.931Z,22.27
2017-06-05T09:08:58.370Z,22.17
2017-06-05T09:09:59.798Z,22.25
2017-06-05T09:11:01.243Z,22.21
2017-06-05T09:12:02.753Z,22.27
2017-06-05T09:13:04.192Z,22.21
2017-06-05T09:14:05.633Z,22.25
2017-06-05T09:15:07.082Z,22.24
2017-06-05T09:16:08.514Z,22.27
2017-06-05T09:17:09.950Z,22.30
2017-06-05T09:18:11.394Z,22.31
2017-06-05T09:19:12.849Z,22.37
2017-06-05T09:20:14.282Z,22.31
2017-06-05T09:21:15.717Z,22.35
2017-06-05T09:22:17.156Z,22.24
2017-06-05T09:23:18.597Z,22.30
2017-06-05T09:24:20.040Z,22.25
2017-06-05T09:25:21.476Z,22.25
2017-06-05T09:26:22.920Z,22.33
2017-06-05T09:27:24.356Z,22.39
2017-06-05T09:28:25.786Z,22.40
2017-06-05T09:29:27.234Z,22.43
2017-06-05T09:30:28.697Z,22.46
2017-06-05T09:31:30.133Z,22.39
2017-06-05T09:32:31.572Z,22.46
2017-06-05T09:33:33.010Z,22.46
2017-06-05T09:34:34.503Z,22.46
2017-06-05T09:35:35.938Z,22.45
2017-06-05T09:36:37.374Z,22.45
2017-06-05T09:37:38.818Z,22.42
2017-06-05T09:38:40.259Z,22.46
2017-06-05T09:39:41.697Z,22.43
2017-06-05T09:40:43.148Z,22.42
2017-06-05T09:41:44.577Z,22.46
2017-06-05T09:42:46.021Z,22.45
2017-06-05T09:43:47.456Z,22.47
2017-06-05T09:44:48.914Z,22.49
2017-06-05T09:45:50.370Z,22.52
2017-06-05T09:46:51.814Z,22.51
2017-06-05T09:47:53.253Z,22.49
2017-06-05T09:48:54.697Z,22.49
2017-06-05T09:49:56.131Z,22.49
2017-06-05T09:50:57.570Z,22.54
2017-06-05T09:51:59.003Z,22.60
2017-06-05T09:53:00.441Z,22.60
2017-06-05T09:54:01.882Z,22.64
2017-06-05T09:55:03.320Z,22.58
2017-06-05T09:56:04.768Z,22.60
2017-06-05T09:57:06.241Z,22.60
2017-06-05T09:58:07.676Z,22.62
2017-06-05T09:59:09.114Z,22.60
2017-06-05T10:00:10.575Z,22.61
2017-06-05T10:01:12.022Z,22.64
2017-06-05T10:02:13.469Z,22.72
2017-06-05T10:03:14.908Z,22.68
2017-06-05T10:04:16.384Z,22.67
2017-06-05T10:05:17.821Z,22.76
2017-06-05T10:06:19.254Z,22.62
2017-06-05T10:07:20.693Z,22.75
2017-06-05T10:08:22.162Z,22.79
2017-06-05T10:09:23.602Z,22.79
2017-06-05T10:10:25.034Z,22.80
2017-06-05T10:11:26.479Z,22.86
2017-06-05T10:12:27.915Z,22.82
2017-06-05T10:13:29.362Z,22.82
2017-06-05T10:14:30.800Z,22.83
2017-06-05T10:15:32.245Z,22.79
2017-06-05T10:16:33.697Z,22.80
2017-06-05T10:17:35.142Z,22.90
2017-06-05T10:18:36.575Z,22.90
2017-06-05T10:19:38.014Z,22.92
2017-06-05T10:20:39.464Z,22.86
2017-06-05T10:21:40.915Z,22.91
2017-06-05T10:22:42.372Z,22.90
2017-06-05T10:23:43.810Z,22.97
2017-06-05T10:24:45.243Z,22.92
2017-06-05T10:25:46.675Z,22.90
2017-06-05T10:26:48.118Z,23.00
2017-06-05T10:27:49.554Z,22.97
2017-06-05T10:28:50.999Z,23.01
2017-06-05T10:29:52.461Z,23.07
2017-06-05T10:30:53.897Z,22.94
2017-06-05T10:31:55.341Z,23.02
2017-06-05T10:32:56.785Z,23.09
2017-06-05T10:33:58.223Z,23.12
2017-06-05T10:34:59.659Z,23.09
2017-06-05T10:36:01.098Z,23.13
2017-06-05T10:37:02.544Z,23.09
2017-06-05T10:38:03.978Z,23.12
2017-06-05T10:39:05.424Z,23.12
2017-06-05T10:40:06.867Z,23.09
2017-06-05T10:41:08.332Z,23.19
2017-06-05T10:42:09.767Z,23.19
2017-06-05T10:43:11.204Z,23.19
2017-06-05T10:44:12.644Z,23.22
2017-06-05T10:45:14.085Z,23.23
2017-06-05T10:46:15.517Z,23.17
2017-06-05T10:47:16.962Z,23.17
2017-06-05T10:48:18.395Z,23.25
2017-06-05T10:49:19.846Z,23.31
2017-06-05T10:50:21.287Z,23.28
2017-06-05T10:51:22.717Z,23.35
2017-06-05T10:52:24.166Z,23.31
2017-06-05T10:53:25.615Z,23.22
2017-06-05T10:54:27.052Z,23.28
2017-06-05T10:55:28.485Z,23.23
2017-06-05T10:56:29.929Z,23.17
2017-06-05T10:57:31.368Z,23.27
2017-06-05T10:58:32.811Z,23.28
2017-06-05T10:59:34.253Z,23.32
2017-06-05T11:00:35.686Z,23.32
2017-06-05T11:01:37.127Z,23.33
2017-06-05T11:02:38.574Z,23.33
2017-06-05T11:03:40.004Z,23.36
2017-06-05T11:04:41.443Z,23.38
2017-06-05T11:05:42.889Z,23.32
2017-06-05T11:06:44.328Z,23.42
2017-06-05T11:07:45.767Z,23.38
2017-06-05T11:08:47.213Z,23.36
2017-06-05T11:09:48.752Z,23.35
2017-06-05T11:10:50.203Z,23.42
2017-06-05T11:11:51.646Z,23.46
2017-06-05T11:12:53.091Z,23.46
2017-06-05T11:13:54.531Z,23.46
2017-06-05T11:14:55.963Z,23.43
2017-06-05T11:15:57.390Z,23.43
2017-06-05T11:16:58.833Z,23.54
2017-06-05T11:18:00.273Z,23.57
2017-06-05T11:19:01.714Z,23.54
2017-06-05T11:20:03.151Z,23.54
2017-06-05T11:21:04.594Z,23.53
2017-06-05T11:22:06.036Z,23.50
2017-06-05T11:23:07.478Z,23.51
2017-06-05T11:24:08.924Z,23.54
2017-06-05T11:25:10.368Z,23.61
2017-06-05T11:26:11.813Z,23.61
2017-06-05T11:27:13.933Z,23.60
2017-06-05T11:28:15.373Z,23.65
2017-06-05T11:29:16.824Z,23.65
2017-06-05T11:30:18.265Z,23.58
2017-06-05T11:31:19.710Z,23.54
2017-06-05T11:32:21.148Z,23.58
2017-06-05T11:33:22.588Z,23.69
2017-06-05T11:34:24.043Z,23.72
2017-06-05T11:35:25.483Z,23.66
2017-06-05T11:36:26.916Z,23.79
2017-06-05T11:37:28.354Z,23.65
2017-06-05T11:38:29.789Z,23.68
2017-06-05T11:39:31.227Z,23.68
2017-06-05T11:40:32.669Z,23.69
2017-06-05T11:41:34.118Z,23.78
2017-06-05T11:42:35.568Z,23.78
2017-06-05T11:43:37.013Z,23.69
2017-06-05T11:44:38.452Z,23.72
2017-06-05T11:45:39.889Z,23.78
2017-06-05T11:46:41.325Z,23.76
2017-06-05T11:47:42.761Z,23.75
2017-06-05T11:48:44.205Z,23.78
2017-06-05T11:49:45.653Z,23.85
2017-06-05T11:50:47.100Z,23.85
2017-06-05T11:51:48.539Z,23.85
2017-06-05T11:52:49.990Z,23.84
2017-06-05T11:53:51.435Z,23.84
2017-06-05T11:54:52.884Z,23.90
2017-06-05T11:55:54.341Z,23.83
2017-06-05T11:56:55.779Z,23.84
2017-06-05T11:57:57.218Z,23.93
2017-06-05T11:58:58.655Z,23.84
2017-06-05T12:00:00.090Z,23.95
2017-06-05T12:01:01.524Z,23.91
2017-06-05T12:02:02.962Z,23.87
2017-06-05T12:03:04.416Z,23.84
2017-06-05T12:04:05.854Z,23.91
2017-06-05T12:05:07.302Z,23.87
2017-06-05T12:06:08.734Z,23.97
2017-06-05T12:07:10.169Z,23.95
2017-06-05T12:08:11.609Z,23.93
2017-06-05T12:09:13.044Z,24.00
2017-06-05T12:10:14.487Z,23.95
2017-06-05T12:11:15.917Z,23.98
2017-06-05T12:12:17.363Z,23.98
2017-06-05T12:13:18.803Z,23.98
2017-06-05T12:14:20.241Z,24.00
2017-06-05T12:15:21.674Z,24.02
2017-06-05T12:16:23.113Z,24.03
2017-06-05T12:17:24.556Z,24.06
2017-06-05T12:18:25.993Z,24.03
2017-06-05T12:19:27.432Z,23.98
2017-06-05T12:20:28.869Z,23.95
2017-06-05T12:21:30.305Z,24.00
2017-06-05T12:22:31.746Z,24.05
2017-06-05T12:23:33.193Z,24.02
2017-06-05T12:24:34.637Z,24.12
2017-06-05T12:25:36.078Z,24.08
2017-06-05T12:26:37.517Z,24.10
2017-06-05T12:27:38.953Z,24.12
2017-06-05T12:28:40.390Z,24.16
2017-06-05T12:29:41.838Z,24.13
2017-06-05T12:30:43.281Z,24.13
2017-06-05T12:31:44.722Z,24.13
2017-06-05T12:32:46.164Z,24.18
2017-06-05T12:33:48.114Z,24.22
2017-06-05T12:34:49.592Z,24.12
2017-06-05T12:35:51.033Z,24.13
2017-06-05T12:36:53.175Z,24.22
2017-06-05T12:37:54.611Z,24.24
2017-06-05T12:38:56.053Z,24.27
2017-06-05T12:39:57.497Z,24.24
2017-06-05T12:40:58.927Z,24.25
2017-06-05T12:42:00.360Z,24.24
2017-06-05T12:43:01.803Z,24.24
2017-06-05T12:44:03.242Z,24.22
2017-06-05T12:45:04.683Z,24.25
2017-06-05T12:46:06.130Z,24.25
2017-06-05T12:47:07.583Z,24.27
2017-06-05T12:48:09.015Z,24.30
2017-06-05T12:49:10.455Z,24.30
2017-06-05T12:50:11.885Z,24.30
2017-06-05T12:51:13.352Z,24.28
2017-06-05T12:52:14.779Z,24.25
2017-06-05T12:53:16.216Z,24.25
2017-06-05T12:54:17.649Z,24.30
2017-06-05T12:55:19.087Z,24.31
2017-06-05T12:56:20.526Z,24.32
2017-06-05T12:57:21.964Z,24.31
2017-06-05T12:58:23.402Z,24.43
2017-06-05T12:59:24.836Z,24.39
2017-06-05T13:00:26.276Z,24.43
2017-06-05T13:01:27.717Z,24.37
2017-06-05T13:02:29.155Z,24.37
2017-06-05T13:03:30.588Z,24.45
2017-06-05T13:04:32.050Z,24.34
2017-06-05T13:05:33.495Z,24.37
2017-06-05T13:06:34.927Z,24.39
2017-06-05T13:07:36.373Z,24.43
2017-06-05T13:08:37.818Z,24.35
2017-06-05T13:09:39.244Z,24.42
2017-06-05T13:10:40.676Z,24.35